^^
Station Historical Data
Daily Summary for May 1, 2017 Units:  English    Metric   Both
« Previous Day
Next Day »
Daily Weekly Monthly Yearly Custom
  High: Low: Average:
Temperature: 71.0 °F 46.2 °F 57.1 °F
Dew Point: 61.1 °F 40.8 °F 52.6 °F
Humidity: 96% 69% 86%
Wind Speed: 6.0mph 0.0mph 1.2mph
Wind Gust: 13.0mph - -
Wind- - SSW
Pressure: 30.17 in 29.65 in -
Precipitation: 0.00 in    
Historical Graphs
 
 
Tabular Data for May 1, 2017
Time Temperature Dew Point Pressure Wind Wind Speed Wind Gust Humidity Rainfall Rate (Hourly) Conditions
00:00 49.5 °F 40.8 °F 30.16 in ESE 1.0 mph 3.0 mph 72% 0.00 in BKN
00:15 49.3 °F 41.4 °F 30.17 in Calm   4.0 mph 74% 0.00 in BKN
00:30 49.2 °F 41.6 °F 30.17 in North 1.0 mph 4.0 mph 75% 0.00 in BKN
00:45 48.9 °F 42.3 °F 30.16 in SW 1.0 mph 4.0 mph 78% 0.00 in BKN
01:00 48.5 °F 42.6 °F 30.16 in North 1.0 mph 6.0 mph 80% 0.00 in BKN
02:15 47.2 °F 43.8 °F 30.12 in Calm   6.0 mph 88% 0.00 in BKN
02:30 47.0 °F 43.9 °F 30.12 in Calm   5.0 mph 89% 0.00 in BKN
02:45 46.8 °F 44.0 °F 30.11 in Calm   3.0 mph 90% 0.00 in BKN
03:00 46.8 °F 44.3 °F 30.10 in Calm   2.0 mph 91% 0.00 in BKN
03:15 46.4 °F 44.2 °F 30.09 in West 1.0 mph 4.0 mph 92% 0.00 in -DZ
03:30 46.3 °F 44.4 °F 30.08 in WSW 1.0 mph 2.0 mph 93% 0.00 in -DZ
03:45 46.3 °F 44.4 °F 30.08 in NNW 1.0 mph 3.0 mph 93% 0.00 in -DZ
04:00 46.3 °F 44.7 °F 30.08 in Calm   3.0 mph 94% 0.00 in -DZ
04:15 46.3 °F 44.7 °F 30.07 in North 1.0 mph 7.0 mph 94% 0.00 in -DZ
04:30 46.2 °F 44.6 °F 30.06 in East 2.0 mph 6.0 mph 94% 0.00 in -DZ
04:45 46.3 °F 44.9 °F 30.05 in North 1.0 mph 5.0 mph 95% 0.00 in -DZ
05:00 46.3 °F 44.9 °F 30.05 in WNW 1.0 mph 4.0 mph 95% 0.00 in -DZ
05:15 46.3 °F 44.9 °F 30.05 in Calm   3.0 mph 95% 0.00 in -DZ
05:30 46.4 °F 45.0 °F 30.04 in North 1.0 mph 3.0 mph 95% 0.00 in -DZ
05:45 46.4 °F 45.0 °F 30.03 in Calm   2.0 mph 95% 0.00 in -DZ
06:00 46.4 °F 45.0 °F 30.03 in Calm   2.0 mph 95% 0.00 in -DZ
06:15 46.4 °F 45.3 °F 30.04 in Calm   1.0 mph 96% 0.00 in -DZ
06:30 46.5 °F 45.4 °F 30.04 in Calm   1.0 mph 96% 0.00 in -DZ
06:45 46.7 °F 45.6 °F 30.03 in Calm   2.0 mph 96% 0.00 in -DZ
07:00 46.7 °F 45.6 °F 30.03 in Calm   1.0 mph 96% 0.00 in -DZ
07:15 47.0 °F 45.9 °F 30.03 in Calm   1.0 mph 96% 0.00 in CLR
07:30 47.1 °F 46.0 °F 30.03 in Calm   2.0 mph 96% 0.00 in CLR
07:45 47.1 °F 46.0 °F 30.02 in Calm   2.0 mph 96% 0.00 in CLR
08:00 47.3 °F 46.2 °F 30.02 in Calm   3.0 mph 96% 0.00 in CLR
08:15 47.5 °F 46.4 °F 30.02 in Calm   1.0 mph 96% 0.00 in CLR
08:30 47.8 °F 46.7 °F 30.03 in Calm   2.0 mph 96% 0.00 in CLR
08:45 48.1 °F 47.0 °F 30.02 in West 1.0 mph 2.0 mph 96% 0.00 in CLR
09:00 48.3 °F 47.2 °F 30.02 in Calm   2.0 mph 96% 0.00 in CLR
09:15 48.7 °F 47.6 °F 30.02 in Calm   3.0 mph 96% 0.00 in CLR
09:30 49.0 °F 47.9 °F 30.01 in Calm   2.0 mph 96% 0.00 in CLR
09:45 49.4 °F 48.3 °F 30.01 in Calm   2.0 mph 96% 0.00 in CLR
10:00 49.5 °F 48.4 °F 30.01 in SSW 1.0 mph 3.0 mph 96% 0.00 in CLR
10:15 49.7 °F 48.6 °F 30.00 in Calm   2.0 mph 96% 0.00 in CLR
10:30 50.0 °F 48.9 °F 30.00 in Calm   2.0 mph 96% 0.00 in CLR
10:45 50.8 °F 49.4 °F 30.00 in WSW 1.0 mph 3.0 mph 95% 0.00 in CLR
11:00 52.2 °F 50.8 °F 30.00 in SW 1.0 mph 3.0 mph 95% 0.00 in CLR
11:15 53.5 °F 51.2 °F 30.00 in SSW 1.0 mph 4.0 mph 92% 0.00 in CLR
11:30 54.7 °F 51.8 °F 29.99 in Calm   3.0 mph 90% 0.00 in CLR
11:45 55.7 °F 52.2 °F 29.98 in South 1.0 mph 5.0 mph 88% 0.00 in CLR
12:00 58.0 °F 52.9 °F 29.98 in WSW 1.0 mph 3.0 mph 83% 0.00 in CLR
12:15 57.6 °F 52.8 °F 29.97 in Calm   4.0 mph 84% 0.00 in OVC
12:30 60.1 °F 54.3 °F 29.96 in WSW 1.0 mph 5.0 mph 81% 0.00 in OVC
12:45 61.5 °F 54.6 °F 29.95 in SSE 2.0 mph 7.0 mph 78% 0.00 in OVC
13:00 62.3 °F 55.4 °F 29.95 in WSW 3.0 mph 7.0 mph 78% 0.00 in OVC
13:15 62.6 °F 55.6 °F 29.94 in South 3.0 mph 12.0 mph 78% 0.00 in BKN
13:30 64.1 °F 57.4 °F 29.92 in SW 3.0 mph 12.0 mph 79% 0.00 in BKN
13:45 65.3 °F 57.2 °F 29.92 in South 3.0 mph 12.0 mph 75% 0.00 in BKN
14:00 65.0 °F 57.6 °F 29.91 in SW 5.0 mph 10.0 mph 77% 0.00 in BKN
14:15 65.8 °F 58.4 °F 29.90 in SW 2.0 mph 8.0 mph 77% 0.00 in BKN
14:30 67.8 °F 58.8 °F 29.90 in South 2.0 mph 6.0 mph 73% 0.00 in BKN
14:45 68.3 °F 59.3 °F 29.89 in SW 2.0 mph 8.0 mph 73% 0.00 in BKN
15:00 69.6 °F 59.4 °F 29.87 in WSW 2.0 mph 7.0 mph 70% 0.00 in BKN
15:15 70.3 °F 59.6 °F 29.87 in South 2.0 mph 9.0 mph 69% 0.00 in BKN
15:30 70.8 °F 60.1 °F 29.86 in South 3.0 mph 9.0 mph 69% 0.00 in BKN
15:45 71.0 °F 60.3 °F 29.85 in West 1.0 mph 9.0 mph 69% 0.00 in BKN
16:00 70.5 °F 61.0 °F 29.84 in SW 2.0 mph 6.0 mph 72% 0.00 in BKN
16:15 70.7 °F 60.9 °F 29.83 in SSE 2.0 mph 7.0 mph 71% 0.00 in FEW
16:30 70.1 °F 61.1 °F 29.83 in Calm   9.0 mph 73% 0.00 in FEW
16:45 69.9 °F 60.4 °F 29.81 in SSE 2.0 mph 10.0 mph 72% 0.00 in FEW
17:00 68.5 °F 59.9 °F 29.80 in Calm   6.0 mph 74% 0.00 in FEW
17:15 67.4 °F 59.2 °F 29.80 in NNW 2.0 mph 6.0 mph 75% 0.00 in SCT
17:30 66.7 °F 58.9 °F 29.79 in ENE 1.0 mph 7.0 mph 76% 0.00 in SCT
17:45 65.7 °F 58.3 °F 29.78 in NNE 2.0 mph 6.0 mph 77% 0.00 in SCT
18:00 64.9 °F 58.2 °F 29.77 in NE 2.0 mph 7.0 mph 79% 0.00 in SCT
18:15 64.7 °F 58.4 °F 29.76 in NNE 1.0 mph 6.0 mph 80% 0.00 in SCT
18:30 64.7 °F 58.7 °F 29.76 in Calm   4.0 mph 81% 0.00 in SCT
18:45 64.2 °F 58.9 °F 29.73 in ENE 1.0 mph 7.0 mph 83% 0.00 in SCT
19:00 64.0 °F 59.1 °F 29.74 in Calm   5.0 mph 84% 0.00 in SCT
19:15 64.0 °F 59.1 °F 29.74 in SW 1.0 mph 7.0 mph 84% 0.00 in FEW
19:30 64.0 °F 59.1 °F 29.72 in SE 2.0 mph 8.0 mph 84% 0.00 in FEW
19:45 64.1 °F 59.5 °F 29.74 in Calm   5.0 mph 85% 0.00 in FEW
20:00 64.0 °F 59.4 °F 29.75 in SE 1.0 mph 3.0 mph 85% 0.00 in FEW
20:15 63.7 °F 59.1 °F 29.75 in Calm   2.0 mph 85% 0.00 in CLR
20:30 63.5 °F 59.2 °F 29.72 in North 1.0 mph 5.0 mph 86% 0.00 in CLR
20:45 63.4 °F 59.1 °F 29.73 in Calm   4.0 mph 86% 0.00 in CLR
21:00 63.9 °F 59.6 °F 29.72 in Calm   4.0 mph 86% 0.00 in CLR
21:15 64.5 °F 60.2 °F 29.72 in South 1.0 mph 5.0 mph 86% 0.00 in FEW
21:30 65.2 °F 60.2 °F 29.73 in SSW 3.0 mph 12.0 mph 84% 0.00 in FEW
21:45 66.0 °F 60.7 °F 29.73 in SSW 6.0 mph 10.0 mph 83% 0.00 in FEW
22:00 66.3 °F 60.6 °F 29.72 in SSW 3.0 mph 13.0 mph 82% 0.00 in FEW
22:15 65.8 °F 60.5 °F 29.70 in SSW 2.0 mph 12.0 mph 83% 0.00 in FEW
22:30 65.2 °F 59.9 °F 29.69 in SW 3.0 mph 9.0 mph 83% 0.00 in FEW
22:45 64.2 °F 59.6 °F 29.68 in SSW 3.0 mph 9.0 mph 85% 0.00 in FEW
23:00 63.2 °F 59.3 °F 29.67 in SSW 3.0 mph 9.0 mph 87% 0.00 in FEW
23:15 62.6 °F 59.3 °F 29.67 in SSW 1.0 mph 12.0 mph 89% 0.00 in CLR
23:30 62.6 °F 59.6 °F 29.66 in South 2.0 mph 12.0 mph 90% 0.00 in CLR
23:45 62.8 °F 59.8 °F 29.65 in SSW 5.0 mph 12.0 mph 90% 0.00 in CLR
TarryTown NY Weather
Compliments of Weather Underground - 1.5 mb